Terminal Aerodrome Forecast
Issued by NWS

Home | Current Version | Previous Version | Text Only | Print | Product List | Glossary Off
Versions: 1 2 3 4 5 6 7 8 9 10 11 12 13 14 15 16 17 18 19 20 21 22 23 24

000
FTUS45 KGGW 251700
TAFGDV
TAF
KGDV 251720Z 2518/2618 30010KT P6SM SCT015 OVC025
     FM260000 VRB06KT P6SM SCT170
     FM260600 VRB04KT P6SM VCSH OVC070
     FM261200 00000KT P6SM OVC050
      AMD LTD TO CLD VIS AND WIND=

USA.gov is the U.S. government's official web portal to all federal, state and local government web resources and services.